sensor_id;sensor_type;location;lat;lon;timestamp;pressure;altitude;pressure_sealevel;temperature;humidity
24230;BME280;12362;50.004;8.006;2024-02-04T00:00:24;101541.38;;;11.02;100.00
24230;BME280;12362;50.004;8.006;2024-02-04T00:02:50;101534.59;;;10.98;100.00
24230;BME280;12362;50.004;8.006;2024-02-04T00:05:15;101537.22;;;10.96;100.00
24230;BME280;12362;50.004;8.006;2024-02-04T00:07:41;101529.59;;;10.92;100.00
24230;BME280;12362;50.004;8.006;2024-02-04T00:10:07;101529.59;;;10.92;100.00
24230;BME280;12362;50.004;8.006;2024-02-04T00:12:32;101524.44;;;10.90;100.00
24230;BME280;12362;50.004;8.006;2024-02-04T00:14:58;101528.84;;;10.88;100.00
24230;BME280;12362;50.004;8.006;2024-02-04T00:17:26;101528.00;;;10.88;100.00
24230;BME280;12362;50.004;8.006;2024-02-04T00:19:56;101520.16;;;10.89;100.00
24230;BME280;12362;50.004;8.006;2024-02-04T00:22:22;101521.00;;;10.90;100.00
24230;BME280;12362;50.004;8.006;2024-02-04T00:24:48;101509.66;;;10.92;100.00
24230;BME280;12362;50.004;8.006;2024-02-04T00:27:13;101501.75;;;10.95;100.00
24230;BME280;12362;50.004;8.006;2024-02-04T00:29:39;101498.22;;;10.98;100.00
24230;BME280;12362;50.004;8.006;2024-02-04T00:32:04;101505.00;;;11.02;100.00
24230;BME280;12362;50.004;8.006;2024-02-04T00:34:30;101502.31;;;11.05;100.00
24230;BME280;12362;50.004;8.006;2024-02-04T00:36:55;101504.06;;;11.04;100.00
24230;BME280;12362;50.004;8.006;2024-02-04T00:39:21;101505.13;;;10.99;100.00
24230;BME280;12362;50.004;8.006;2024-02-04T00:41:46;101492.94;;;11.01;100.00
24230;BME280;12362;50.004;8.006;2024-02-04T00:44:12;101494.56;;;11.03;100.00
24230;BME280;12362;50.004;8.006;2024-02-04T00:46:37;101501.47;;;11.04;100.00
24230;BME280;12362;50.004;8.006;2024-02-04T00:49:03;101496.28;;;11.04;100.00
24230;BME280;12362;50.004;8.006;2024-02-04T00:51:28;101495.56;;;10.99;100.00
24230;BME280;12362;50.004;8.006;2024-02-04T00:53:53;101497.25;;;11.00;100.00
24230;BME280;12362;50.004;8.006;2024-02-04T00:56:19;101499.69;;;11.06;100.00
24230;BME280;12362;50.004;8.006;2024-02-04T00:58:45;101490.28;;;11.02;100.00
24230;BME280;12362;50.004;8.006;2024-02-04T01:01:10;101498.25;;;10.96;100.00
24230;BME280;12362;50.004;8.006;2024-02-04T01:03:36;101500.81;;;10.98;100.00
24230;BME280;12362;50.004;8.006;2024-02-04T01:06:01;101509.50;;;10.97;100.00
24230;BME280;12362;50.004;8.006;2024-02-04T01:08:28;101504.41;;;10.94;100.00
24230;BME280;12362;50.004;8.006;2024-02-04T01:10:53;101511.38;;;10.93;100.00
24230;BME280;12362;50.004;8.006;2024-02-04T01:13:19;101512.25;;;10.92;100.00
24230;BME280;12362;50.004;8.006;2024-02-04T01:15:44;101511.38;;;10.93;100.00
24230;BME280;12362;50.004;8.006;2024-02-04T01:18:11;101506.19;;;10.93;100.00
24230;BME280;12362;50.004;8.006;2024-02-04T01:20:36;101496.69;;;10.92;100.00
24230;BME280;12362;50.004;8.006;2024-02-04T01:23:02;101495.81;;;10.92;100.00
24230;BME280;12362;50.004;8.006;2024-02-04T01:25:27;101502.78;;;10.91;100.00
24230;BME280;12362;50.004;8.006;2024-02-04T01:27:56;101509.69;;;10.91;100.00
24230;BME280;12362;50.004;8.006;2024-02-04T01:30:21;101522.66;;;10.92;100.00
24230;BME280;12362;50.004;8.006;2024-02-04T01:32:47;101533.94;;;10.91;100.00
24230;BME280;12362;50.004;8.006;2024-02-04T01:35:12;101538.13;;;10.95;100.00
24230;BME280;12362;50.004;8.006;2024-02-04T01:37:38;101533.13;;;10.89;100.00
24230;BME280;12362;50.004;8.006;2024-02-04T01:40:04;101525.34;;;10.89;100.00
24230;BME280;12362;50.004;8.006;2024-02-04T01:42:31;101534.03;;;10.88;100.00
24230;BME280;12362;50.004;8.006;2024-02-04T01:44:56;101538.50;;;10.83;100.00
24230;BME280;12362;50.004;8.006;2024-02-04T01:47:22;101529.09;;;10.81;100.00
24230;BME280;12362;50.004;8.006;2024-02-04T01:49:48;101543.91;;;10.78;100.00
24230;BME280;12362;50.004;8.006;2024-02-04T01:52:14;101541.31;;;10.78;100.00
24230;BME280;12362;50.004;8.006;2024-02-04T01:54:41;101544.06;;;10.73;100.00
24230;BME280;12362;50.004;8.006;2024-02-04T01:57:09;101541.47;;;10.73;100.00
24230;BME280;12362;50.004;8.006;2024-02-04T01:59:35;101524.25;;;10.71;100.00
24230;BME280;12362;50.004;8.006;2024-02-04T02:02:03;101532.16;;;10.66;100.00
24230;BME280;12362;50.004;8.006;2024-02-04T02:04:28;101519.94;;;10.70;100.00
24230;BME280;12362;50.004;8.006;2024-02-04T02:06:55;101531.22;;;10.69;100.00
24230;BME280;12362;50.004;8.006;2024-02-04T02:09:21;101525.31;;;10.64;100.00
24230;BME280;12362;50.004;8.006;2024-02-04T02:11:55;101527.16;;;10.60;100.00
24230;BME280;12362;50.004;8.006;2024-02-04T02:14:30;101526.59;;;10.51;100.00
24230;BME280;12362;50.004;8.006;2024-02-04T02:16:57;101519.03;;;10.43;100.00
24230;BME280;12362;50.004;8.006;2024-02-04T02:19:41;101528.63;;;10.41;100.00
24230;BME280;12362;50.004;8.006;2024-02-04T02:24:57;101526.19;;;10.35;100.00
24230;BME280;12362;50.004;8.006;2024-02-04T02:27:24;101528.84;;;10.34;100.00
24230;BME280;12362;50.004;8.006;2024-02-04T02:29:50;101515.09;;;10.30;100.00
24230;BME280;12362;50.004;8.006;2024-02-04T02:32:16;101515.16;;;10.29;100.00
24230;BME280;12362;50.004;8.006;2024-02-04T02:34:42;101500.59;;;10.23;100.00
24230;BME280;12362;50.004;8.006;2024-02-04T02:39:48;101498.97;;;10.19;100.00
24230;BME280;12362;50.004;8.006;2024-02-04T02:42:15;101493.00;;;10.17;100.00
24230;BME280;12362;50.004;8.006;2024-02-04T02:44:43;101489.53;;;10.18;100.00
24230;BME280;12362;50.004;8.006;2024-02-04T02:47:10;101490.31;;;10.20;100.00
24230;BME280;12362;50.004;8.006;2024-02-04T02:49:36;101481.97;;;10.11;100.00
24230;BME280;12362;50.004;8.006;2024-02-04T02:52:01;101477.53;;;10.14;100.00
24230;BME280;12362;50.004;8.006;2024-02-04T02:54:27;101473.97;;;10.18;100.00
24230;BME280;12362;50.004;8.006;2024-02-04T02:56:52;101469.53;;;10.20;100.00
24230;BME280;12362;50.004;8.006;2024-02-04T02:59:18;101459.13;;;10.22;100.00
24230;BME280;12362;50.004;8.006;2024-02-04T03:01:43;101455.66;;;10.23;100.00
24230;BME280;12362;50.004;8.006;2024-02-04T03:04:09;101456.41;;;10.26;100.00
24230;BME280;12362;50.004;8.006;2024-02-04T03:06:34;101453.75;;;10.28;100.00
24230;BME280;12362;50.004;8.006;2024-02-04T03:09:00;101446.91;;;10.25;100.00
24230;BME280;12362;50.004;8.006;2024-02-04T03:11:26;101452.09;;;10.25;100.00
24230;BME280;12362;50.004;8.006;2024-02-04T03:13:51;101451.91;;;10.31;100.00
24230;BME280;12362;50.004;8.006;2024-02-04T03:16:17;101450.25;;;10.29;100.00
24230;BME280;12362;50.004;8.006;2024-02-04T03:18:45;101450.03;;;10.36;100.00
24230;BME280;12362;50.004;8.006;2024-02-04T03:21:12;101445.72;;;10.35;100.00
24230;BME280;12362;50.004;8.006;2024-02-04T03:23:38;101448.31;;;10.35;100.00
24230;BME280;12362;50.004;8.006;2024-02-04T03:26:04;101456.16;;;10.34;100.00
24230;BME280;12362;50.004;8.006;2024-02-04T03:28:29;101444.75;;;10.38;100.00
24230;BME280;12362;50.004;8.006;2024-02-04T03:30:55;101443.03;;;10.38;100.00
24230;BME280;12362;50.004;8.006;2024-02-04T03:33:21;101435.94;;;10.43;100.00
24230;BME280;12362;50.004;8.006;2024-02-04T03:35:47;101441.91;;;10.47;100.00
24230;BME280;12362;50.004;8.006;2024-02-04T03:38:12;101441.00;;;10.48;100.00
24230;BME280;12362;50.004;8.006;2024-02-04T03:40:38;101433.31;;;10.45;100.00
24230;BME280;12362;50.004;8.006;2024-02-04T03:43:09;101438.53;;;10.43;100.00
24230;BME280;12362;50.004;8.006;2024-02-04T03:45:37;101441.09;;;10.45;100.00
24230;BME280;12362;50.004;8.006;2024-02-04T03:48:03;101439.31;;;10.47;100.00
24230;BME280;12362;50.004;8.006;2024-02-04T03:50:29;101442.69;;;10.49;100.00
24230;BME280;12362;50.004;8.006;2024-02-04T03:52:55;101453.19;;;10.46;100.00
24230;BME280;12362;50.004;8.006;2024-02-04T03:55:22;101453.28;;;10.43;100.00
24230;BME280;12362;50.004;8.006;2024-02-04T03:57:47;101459.19;;;10.48;100.00
24230;BME280;12362;50.004;8.006;2024-02-04T04:00:13;101460.09;;;10.45;100.00
24230;BME280;12362;50.004;8.006;2024-02-04T04:02:40;101447.09;;;10.47;100.00
24230;BME280;12362;50.004;8.006;2024-02-04T04:05:06;101441.03;;;10.46;100.00
24230;BME280;12362;50.004;8.006;2024-02-04T04:07:35;101447.13;;;10.45;100.00
24230;BME280;12362;50.004;8.006;2024-02-04T04:10:01;101442.69;;;10.49;100.00
24230;BME280;12362;50.004;8.006;2024-02-04T04:12:26;101431.53;;;10.47;100.00
24230;BME280;12362;50.004;8.006;2024-02-04T04:14:51;101431.53;;;10.47;100.00
24230;BME280;12362;50.004;8.006;2024-02-04T04:17:18;101438.50;;;10.45;100.00
24230;BME280;12362;50.004;8.006;2024-02-04T04:19:43;101439.31;;;10.47;100.00
24230;BME280;12362;50.004;8.006;2024-02-04T04:22:09;101437.47;;;10.50;100.00
24230;BME280;12362;50.004;8.006;2024-02-04T04:24:34;101439.19;;;10.50;100.00
24230;BME280;12362;50.004;8.006;2024-02-04T04:27:00;101446.16;;;10.49;100.00
24230;BME280;12362;50.004;8.006;2024-02-04T04:29:25;101440.06;;;10.50;100.00
24230;BME280;12362;50.004;8.006;2024-02-04T04:31:51;101440.94;;;10.49;100.00
24230;BME280;12362;50.004;8.006;2024-02-04T04:34:17;101439.25;;;10.48;100.00
24230;BME280;12362;50.004;8.006;2024-02-04T04:36:45;101446.09;;;10.51;100.00
24230;BME280;12362;50.004;8.006;2024-02-04T04:39:10;101451.34;;;10.49;100.00
24230;BME280;12362;50.004;8.006;2024-02-04T04:41:36;101450.34;;;10.53;100.00
24230;BME280;12362;50.004;8.006;2024-02-04T04:44:01;101464.22;;;10.52;100.00
24230;BME280;12362;50.004;8.006;2024-02-04T04:46:29;101457.13;;;10.57;100.00
24230;BME280;12362;50.004;8.006;2024-02-04T04:48:55;101444.34;;;10.51;100.00
24230;BME280;12362;50.004;8.006;2024-02-04T04:51:23;101441.75;;;10.51;100.00
24230;BME280;12362;50.004;8.006;2024-02-04T04:53:49;101441.63;;;10.54;100.00
24230;BME280;12362;50.004;8.006;2024-02-04T04:56:17;101437.31;;;10.55;100.00
24230;BME280;12362;50.004;8.006;2024-02-04T04:58:43;101438.34;;;10.49;100.00
24230;BME280;12362;50.004;8.006;2024-02-04T05:01:09;101443.47;;;10.52;100.00
24230;BME280;12362;50.004;8.006;2024-02-04T05:03:34;101451.19;;;10.54;100.00
24230;BME280;12362;50.004;8.006;2024-02-04T05:05:59;101458.91;;;10.57;100.00
24230;BME280;12362;50.004;8.006;2024-02-04T05:08:26;101452.09;;;10.53;100.00
24230;BME280;12362;50.004;8.006;2024-02-04T05:10:51;101456.31;;;10.55;100.00
24230;BME280;12362;50.004;8.006;2024-02-04T05:13:17;101452.03;;;10.54;100.00
24230;BME280;12362;50.004;8.006;2024-02-04T05:15:42;101458.91;;;10.55;100.00
24230;BME280;12362;50.004;8.006;2024-02-04T05:18:08;101459.78;;;10.56;100.00
24230;BME280;12362;50.004;8.006;2024-02-04T05:20:33;101458.09;;;10.55;100.00
24230;BME280;12362;50.004;8.006;2024-02-04T05:23:00;101445.16;;;10.53;100.00
24230;BME280;12362;50.004;8.006;2024-02-04T05:25:25;101440.75;;;10.55;100.00
24230;BME280;12362;50.004;8.006;2024-02-04T05:27:51;101458.16;;;10.53;100.00
24230;BME280;12362;50.004;8.006;2024-02-04T05:30:17;101456.31;;;10.55;100.00
24230;BME280;12362;50.004;8.006;2024-02-04T05:32:42;101458.16;;;10.52;100.00
24230;BME280;12362;50.004;8.006;2024-02-04T05:35:09;101464.19;;;10.54;100.00
24230;BME280;12362;50.004;8.006;2024-02-04T05:37:35;101471.13;;;10.53;100.00
24230;BME280;12362;50.004;8.006;2024-02-04T05:40:02;101477.00;;;10.58;100.00
24230;BME280;12362;50.004;8.006;2024-02-04T05:42:28;101474.41;;;10.58;100.00
24230;BME280;12362;50.004;8.006;2024-02-04T05:44:53;101462.38;;;10.56;100.00
24230;BME280;12362;50.004;8.006;2024-02-04T05:47:19;101459.78;;;10.56;100.00
24230;BME280;12362;50.004;8.006;2024-02-04T05:49:44;101470.31;;;10.51;100.00
24230;BME280;12362;50.004;8.006;2024-02-04T05:52:10;101456.47;;;10.51;100.00
24230;BME280;12362;50.004;8.006;2024-02-04T05:54:38;101461.63;;;10.52;100.00
24230;BME280;12362;50.004;8.006;2024-02-04T05:57:07;101464.22;;;10.52;100.00
24230;BME280;12362;50.004;8.006;2024-02-04T05:59:33;101459.81;;;10.54;100.00
24230;BME280;12362;50.004;8.006;2024-02-04T06:01:59;101466.03;;;10.50;100.00
24230;BME280;12362;50.004;8.006;2024-02-04T06:04:25;101468.56;;;10.52;100.00
24230;BME280;12362;50.004;8.006;2024-02-04T06:06:50;101471.13;;;10.53;100.00
24230;BME280;12362;50.004;8.006;2024-02-04T06:09:16;101474.47;;;10.57;100.00
24230;BME280;12362;50.004;8.006;2024-02-04T06:11:44;101458.09;;;10.55;100.00
24230;BME280;12362;50.004;8.006;2024-02-04T06:14:10;101459.81;;;10.54;100.00
24230;BME280;12362;50.004;8.006;2024-02-04T06:16:36;101462.31;;;10.57;100.00
24230;BME280;12362;50.004;8.006;2024-02-04T06:19:01;101475.31;;;10.57;100.00
24230;BME280;12362;50.004;8.006;2024-02-04T06:21:27;101458.91;;;10.57;100.00
24230;BME280;12362;50.004;8.006;2024-02-04T06:23:52;101449.41;;;10.56;100.00
24230;BME280;12362;50.004;8.006;2024-02-04T06:26:17;101450.22;;;10.58;100.00
24230;BME280;12362;50.004;8.006;2024-02-04T06:28:43;101432.84;;;10.60;100.00
24230;BME280;12362;50.004;8.006;2024-02-04T06:31:12;101430.25;;;10.58;100.00
24230;BME280;12362;50.004;8.006;2024-02-04T06:33:38;101440.56;;;10.61;100.00
24230;BME280;12362;50.004;8.006;2024-02-04T06:36:09;101437.09;;;10.61;100.00
24230;BME280;12362;50.004;8.006;2024-02-04T06:38:34;101434.66;;;10.56;100.00
24230;BME280;12362;50.004;8.006;2024-02-04T06:40:59;101437.09;;;10.61;100.00
24230;BME280;12362;50.004;8.006;2024-02-04T06:43:25;101435.28;;;10.64;100.00
24230;BME280;12362;50.004;8.006;2024-02-04T06:45:50;101435.31;;;10.63;100.00
24230;BME280;12362;50.004;8.006;2024-02-04T06:48:19;101439.59;;;10.64;100.00
24230;BME280;12362;50.004;8.006;2024-02-04T06:50:44;101440.66;;;10.58;100.00
24230;BME280;12362;50.004;8.006;2024-02-04T06:53:11;101444.78;;;10.65;100.00
24230;BME280;12362;50.004;8.006;2024-02-04T06:55:36;101442.19;;;10.65;100.00
24230;BME280;12362;50.004;8.006;2024-02-04T06:58:02;101440.47;;;10.64;100.00
24230;BME280;12362;50.004;8.006;2024-02-04T07:00:27;101448.28;;;10.63;100.00
24230;BME280;12362;50.004;8.006;2024-02-04T07:02:53;101444.66;;;10.68;100.00
24230;BME280;12362;50.004;8.006;2024-02-04T07:05:18;101439.44;;;10.68;100.00
24230;BME280;12362;50.004;8.006;2024-02-04T07:07:44;101435.16;;;10.67;100.00
24230;BME280;12362;50.004;8.006;2024-02-04T07:10:09;101425.56;;;10.69;100.00
24230;BME280;12362;50.004;8.006;2024-02-04T07:12:35;101415.25;;;10.68;100.00
24230;BME280;12362;50.004;8.006;2024-02-04T07:15:00;101419.63;;;10.66;100.00
24230;BME280;12362;50.004;8.006;2024-02-04T07:17:27;101438.47;;;10.72;100.00
24230;BME280;12362;50.004;8.006;2024-02-04T07:19:52;101444.66;;;10.68;100.00
24230;BME280;12362;50.004;8.006;2024-02-04T07:22:18;101433.34;;;10.71;100.00
24230;BME280;12362;50.004;8.006;2024-02-04T07:24:43;101436.66;;;10.74;100.00
24230;BME280;12362;50.004;8.006;2024-02-04T07:27:09;101431.50;;;10.73;100.00
24230;BME280;12362;50.004;8.006;2024-02-04T07:29:34;101435.72;;;10.77;100.00
24230;BME280;12362;50.004;8.006;2024-02-04T07:32:00;101443.41;;;10.80;100.00
24230;BME280;12362;50.004;8.006;2024-02-04T07:34:25;101433.13;;;10.77;100.00
24230;BME280;12362;50.004;8.006;2024-02-04T07:36:53;101425.13;;;10.83;100.00
24230;BME280;12362;50.004;8.006;2024-02-04T07:39:19;101430.09;;;10.88;100.00
24230;BME280;12362;50.004;8.006;2024-02-04T07:41:44;101435.41;;;10.85;100.00
24230;BME280;12362;50.004;8.006;2024-02-04T07:44:10;101420.84;;;10.82;100.00
24230;BME280;12362;50.004;8.006;2024-02-04T07:46:35;101426.94;;;10.81;100.00
24230;BME280;12362;50.004;8.006;2024-02-04T07:49:01;101433.75;;;10.83;100.00
24230;BME280;12362;50.004;8.006;2024-02-04T07:51:27;101440.66;;;10.84;100.00
24230;BME280;12362;50.004;8.006;2024-02-04T07:53:52;101442.38;;;10.83;100.00
24230;BME280;12362;50.004;8.006;2024-02-04T07:56:18;101442.38;;;10.83;100.00
24230;BME280;12362;50.004;8.006;2024-02-04T07:58:43;101440.25;;;10.96;100.00
24230;BME280;12362;50.004;8.006;2024-02-04T08:01:09;101441.97;;;10.95;100.00
24230;BME280;12362;50.004;8.006;2024-02-04T08:03:35;101437.59;;;10.97;100.00
24230;BME280;12362;50.004;8.006;2024-02-04T08:06:01;101430.91;;;10.90;100.00
24230;BME280;12362;50.004;8.006;2024-02-04T08:08:27;101439.38;;;10.95;100.00
24230;BME280;12362;50.004;8.006;2024-02-04T08:10:52;101421.31;;;10.92;100.00
24230;BME280;12362;50.004;8.006;2024-02-04T08:13:18;101431.97;;;10.85;100.00
24230;BME280;12362;50.004;8.006;2024-02-04T08:15:43;101438.16;;;10.81;100.00
24230;BME280;12362;50.004;8.006;2024-02-04T08:18:09;101423.88;;;10.68;100.00
24230;BME280;12362;50.004;8.006;2024-02-04T08:20:34;101426.44;;;10.70;100.00
24230;BME280;12362;50.004;8.006;2024-02-04T08:23:03;101425.13;;;10.83;100.00
24230;BME280;12362;50.004;8.006;2024-02-04T08:25:29;101418.03;;;10.87;100.00
24230;BME280;12362;50.004;8.006;2024-02-04T08:27:54;101428.97;;;10.97;100.00
24230;BME280;12362;50.004;8.006;2024-02-04T08:30:20;101429.38;;;11.09;100.00
24230;BME280;12362;50.004;8.006;2024-02-04T08:32:46;101435.59;;;11.05;100.00
24230;BME280;12362;50.004;8.006;2024-02-04T08:35:11;101426.34;;;11.21;100.00
24230;BME280;12362;50.004;8.006;2024-02-04T08:37:37;101413.31;;;11.23;100.00
24230;BME280;12362;50.004;8.006;2024-02-04T08:43:04;101428.59;;;11.32;100.00
24230;BME280;12362;50.004;8.006;2024-02-04T08:49:07;101443.81;;;11.42;100.00
24230;BME280;12362;50.004;8.006;2024-02-04T08:51:40;101423.84;;;11.43;100.00
24230;BME280;12362;50.004;8.006;2024-02-04T08:54:11;101419.78;;;11.36;100.00
24230;BME280;12362;50.004;8.006;2024-02-04T08:56:39;101429.28;;;11.37;100.00
24230;BME280;12362;50.004;8.006;2024-02-04T08:59:05;101417.31;;;11.31;100.00
24230;BME280;12362;50.004;8.006;2024-02-04T09:01:33;101406.88;;;11.33;100.00
24230;BME280;12362;50.004;8.006;2024-02-04T09:04:06;101403.38;;;11.34;100.00
24230;BME280;12362;50.004;8.006;2024-02-04T09:06:32;101404.38;;;11.30;100.00
24230;BME280;12362;50.004;8.006;2024-02-04T09:09:00;101401.72;;;11.31;100.00
24230;BME280;12362;50.004;8.006;2024-02-04T09:11:26;101405.38;;;11.50;100.00
24230;BME280;12362;50.004;8.006;2024-02-04T09:13:51;101409.47;;;11.57;100.00
24230;BME280;12362;50.004;8.006;2024-02-04T09:16:17;101405.47;;;11.72;100.00
24230;BME280;12362;50.004;8.006;2024-02-04T09:18:43;101401.00;;;11.75;100.00
24230;BME280;12362;50.004;8.006;2024-02-04T09:21:08;101393.81;;;11.81;100.00
24230;BME280;12362;50.004;8.006;2024-02-04T09:23:34;101392.47;;;11.93;100.00
24230;BME280;12362;50.004;8.006;2024-02-04T09:25:59;101375.31;;;12.10;100.00
24230;BME280;12362;50.004;8.006;2024-02-04T09:28:27;101393.19;;;12.19;100.00
24230;BME280;12362;50.004;8.006;2024-02-04T09:30:55;101393.47;;;12.33;100.00
24230;BME280;12362;50.004;8.006;2024-02-04T09:33:21;101396.53;;;12.23;100.00
24230;BME280;12362;50.004;8.006;2024-02-04T09:36:00;101404.56;;;12.17;100.00
24230;BME280;12362;50.004;8.006;2024-02-04T09:38:35;101400.69;;;12.27;100.00
24230;BME280;12362;50.004;8.006;2024-02-04T09:41:01;101395.47;;;12.48;100.00
24230;BME280;12362;50.004;8.006;2024-02-04T09:43:31;101384.81;;;12.33;100.00
24230;BME280;12362;50.004;8.006;2024-02-04T09:45:58;101383.13;;;12.32;100.00
24230;BME280;12362;50.004;8.006;2024-02-04T09:48:33;101383.31;;;12.27;100.00
24230;BME280;12362;50.004;8.006;2024-02-04T09:51:00;101381.13;;;12.38;100.00
24230;BME280;12362;50.004;8.006;2024-02-04T09:53:34;101396.53;;;12.23;100.00
24230;BME280;12362;50.004;8.006;2024-02-04T09:56:03;101390.59;;;12.19;100.00
24230;BME280;12362;50.004;8.006;2024-02-04T09:58:34;101394.09;;;12.18;100.00
24230;BME280;12362;50.004;8.006;2024-02-04T10:01:04;101393.84;;;12.24;100.00
24230;BME280;12362;50.004;8.006;2024-02-04T10:03:34;101392.25;;;12.20;100.00
24230;BME280;12362;50.004;8.006;2024-02-04T10:06:00;101402.66;;;12.20;100.00
24230;BME280;12362;50.004;8.006;2024-02-04T10:08:27;101401.91;;;12.18;100.00
24230;BME280;12362;50.004;8.006;2024-02-04T10:11:00;101400.41;;;12.13;100.00
24230;BME280;12362;50.004;8.006;2024-02-04T10:13:28;101409.06;;;12.35;100.00
24230;BME280;12362;50.004;8.006;2024-02-04T10:15:53;101395.72;;;12.42;100.00
24230;BME280;12362;50.004;8.006;2024-02-04T10:18:21;101398.06;;;12.48;100.00
24230;BME280;12362;50.004;8.006;2024-02-04T10:21:04;101413.59;;;12.30;100.00
24230;BME280;12362;50.004;8.006;2024-02-04T10:23:42;101408.50;;;12.27;100.00
24230;BME280;12362;50.004;8.006;2024-02-04T10:26:20;101413.59;;;12.30;100.00
24230;BME280;12362;50.004;8.006;2024-02-04T10:29:12;101413.88;;;12.22;100.00
24230;BME280;12362;50.004;8.006;2024-02-04T10:31:48;101410.72;;;12.57;100.00
24230;BME280;12362;50.004;8.006;2024-02-04T10:34:14;101405.94;;;12.88;100.00
24230;BME280;12362;50.004;8.006;2024-02-04T10:43:21;101382.44;;;12.48;100.00
24230;BME280;12362;50.004;8.006;2024-02-04T10:46:53;101382.72;;;12.62;100.00
24230;BME280;12362;50.004;8.006;2024-02-04T10:49:23;101384.97;;;12.50;100.00
24230;BME280;12362;50.004;8.006;2024-02-04T10:52:35;101370.03;;;12.74;100.00
24230;BME280;12362;50.004;8.006;2024-02-04T10:55:56;101377.41;;;12.65;100.00
24230;BME280;12362;50.004;8.006;2024-02-04T10:58:33;101374.31;;;12.56;100.00
24230;BME280;12362;50.004;8.006;2024-02-04T11:01:29;101378.63;;;12.35;100.00
24230;BME280;12362;50.004;8.006;2024-02-04T11:03:56;101358.56;;;12.59;100.00
24230;BME280;12362;50.004;8.006;2024-02-04T11:06:23;101359.56;;;12.76;100.00
24230;BME280;12362;50.004;8.006;2024-02-04T11:08:53;101361.25;;;12.77;100.00
24230;BME280;12362;50.004;8.006;2024-02-04T11:11:28;101352.19;;;12.66;100.00
24230;BME280;12362;50.004;8.006;2024-02-04T11:14:00;101337.41;;;12.66;100.00
24230;BME280;12362;50.004;8.006;2024-02-04T11:25:44;101332.78;;;12.72;100.00
24230;BME280;12362;50.004;8.006;2024-02-04T11:28:15;101334.81;;;12.66;100.00
24230;BME280;12362;50.004;8.006;2024-02-04T11:30:43;101331.47;;;12.82;100.00
24230;BME280;12362;50.004;8.006;2024-02-04T11:33:14;101328.38;;;12.94;100.00
24230;BME280;12362;50.004;8.006;2024-02-04T11:35:43;101327.63;;;12.91;100.00
24230;BME280;12362;50.004;8.006;2024-02-04T11:38:09;101322.91;;;13.19;100.00
24230;BME280;12362;50.004;8.006;2024-02-04T11:40:39;101318.47;;;13.21;100.00
24230;BME280;12362;50.004;8.006;2024-02-04T11:43:12;101325.97;;;13.28;100.00
24230;BME280;12362;50.004;8.006;2024-02-04T11:46:02;101322.72;;;13.42;100.00
24230;BME280;12362;50.004;8.006;2024-02-04T11:48:54;101318.75;;;13.70;100.00
24230;BME280;12362;50.004;8.006;2024-02-04T11:51:23;101322.56;;;13.81;100.00
24230;BME280;12362;50.004;8.006;2024-02-04T11:53:53;101314.69;;;13.64;100.00
24230;BME280;12362;50.004;8.006;2024-02-04T11:56:21;101329.38;;;13.49;100.00
24230;BME280;12362;50.004;8.006;2024-02-04T11:58:51;101324.50;;;13.60;100.00
24230;BME280;12362;50.004;8.006;2024-02-04T12:01:17;101316.88;;;13.73;100.00
24230;BME280;12362;50.004;8.006;2024-02-04T12:03:51;101324.50;;;13.60;100.00
24230;BME280;12362;50.004;8.006;2024-02-04T12:06:29;101309.53;;;13.81;100.00
24230;BME280;12362;50.004;8.006;2024-02-04T12:08:54;101306.72;;;13.67;100.00
24230;BME280;12362;50.004;8.006;2024-02-04T12:11:21;101310.19;;;13.50;100.00
24230;BME280;12362;50.004;8.006;2024-02-04T12:13:49;101315.31;;;13.33;100.00
24230;BME280;12362;50.004;8.006;2024-02-04T12:16:29;101310.03;;;13.34;100.00
24230;BME280;12362;50.004;8.006;2024-02-04T12:19:08;101301.72;;;13.45;100.00
24230;BME280;12362;50.004;8.006;2024-02-04T12:21:42;101304.25;;;13.46;100.00
24230;BME280;12362;50.004;8.006;2024-02-04T12:24:23;101286.50;;;13.54;100.00
24230;BME280;12362;50.004;8.006;2024-02-04T12:26:52;101293.25;;;13.58;100.00
24230;BME280;12362;50.004;8.006;2024-02-04T12:29:21;101281.75;;;13.25;100.00
24230;BME280;12362;50.004;8.006;2024-02-04T12:32:07;101301.69;;;13.08;100.00
24230;BME280;12362;50.004;8.006;2024-02-04T12:34:32;101295.44;;;13.12;100.00
24230;BME280;12362;50.004;8.006;2024-02-04T12:37:06;101301.34;;;13.15;100.00
24230;BME280;12362;50.004;8.006;2024-02-04T12:39:35;101288.88;;;13.22;100.00
24230;BME280;12362;50.004;8.006;2024-02-04T12:42:00;101282.19;;;13.16;100.00
24230;BME280;12362;50.004;8.006;2024-02-04T12:44:30;101281.88;;;13.04;100.00
24230;BME280;12362;50.004;8.006;2024-02-04T12:46:58;101273.56;;;13.14;100.00
24230;BME280;12362;50.004;8.006;2024-02-04T12:49:24;101272.44;;;13.20;100.00
24230;BME280;12362;50.004;8.006;2024-02-04T12:51:52;101266.53;;;13.16;100.00
24230;BME280;12362;50.004;8.006;2024-02-04T12:54:40;101264.06;;;13.13;100.00
24230;BME280;12362;50.004;8.006;2024-02-04T12:57:08;101257.44;;;13.06;100.00
24230;BME280;12362;50.004;8.006;2024-02-04T13:00:05;101265.81;;;13.13;100.00
24230;BME280;12362;50.004;8.006;2024-02-04T13:05:50;101263.91;;;13.16;100.00
24230;BME280;12362;50.004;8.006;2024-02-04T13:08:18;101269.91;;;13.18;100.00
24230;BME280;12362;50.004;8.006;2024-02-04T13:10:53;101268.22;;;13.17;100.00
24230;BME280;12362;50.004;8.006;2024-02-04T13:13:21;101272.09;;;13.27;100.00
24230;BME280;12362;50.004;8.006;2024-02-04T13:15:50;101272.22;;;13.06;100.00